sensor_id;sensor_type;location;lat;lon;timestamp;P1;durP1;ratioP1;P2;durP2;ratioP2
84834;SDS011;75078;42.636;23.198;2024-03-08T00:02:22;10.30;;;6.00;;
84834;SDS011;75078;42.636;23.198;2024-03-08T00:04:48;8.43;;;5.20;;
84834;SDS011;75078;42.636;23.198;2024-03-08T00:07:13;7.13;;;5.07;;
84834;SDS011;75078;42.636;23.198;2024-03-08T00:09:38;7.78;;;4.53;;
84834;SDS011;75078;42.636;23.198;2024-03-08T00:12:03;7.80;;;4.72;;
84834;SDS011;75078;42.636;23.198;2024-03-08T00:14:29;6.50;;;4.05;;
84834;SDS011;75078;42.636;23.198;2024-03-08T00:16:54;5.22;;;3.25;;
84834;SDS011;75078;42.636;23.198;2024-03-08T00:19:20;5.10;;;3.42;;
84834;SDS011;75078;42.636;23.198;2024-03-08T00:21:45;5.03;;;3.08;;
84834;SDS011;75078;42.636;23.198;2024-03-08T00:24:10;4.03;;;3.28;;
84834;SDS011;75078;42.636;23.198;2024-03-08T00:26:37;3.88;;;2.70;;
84834;SDS011;75078;42.636;23.198;2024-03-08T00:29:02;7.18;;;4.22;;
84834;SDS011;75078;42.636;23.198;2024-03-08T00:31:28;6.80;;;4.38;;
84834;SDS011;75078;42.636;23.198;2024-03-08T00:33:55;6.75;;;4.90;;
84834;SDS011;75078;42.636;23.198;2024-03-08T00:36:21;8.77;;;5.38;;
84834;SDS011;75078;42.636;23.198;2024-03-08T00:38:47;6.55;;;4.68;;
84834;SDS011;75078;42.636;23.198;2024-03-08T00:41:12;6.53;;;4.78;;
84834;SDS011;75078;42.636;23.198;2024-03-08T00:43:38;8.27;;;5.03;;
84834;SDS011;75078;42.636;23.198;2024-03-08T00:46:03;8.90;;;5.75;;
84834;SDS011;75078;42.636;23.198;2024-03-08T00:48:28;9.70;;;6.25;;
84834;SDS011;75078;42.636;23.198;2024-03-08T00:50:54;9.68;;;5.55;;
84834;SDS011;75078;42.636;23.198;2024-03-08T00:53:23;25.83;;;10.23;;
84834;SDS011;75078;42.636;23.198;2024-03-08T00:55:48;10.05;;;5.43;;
84834;SDS011;75078;42.636;23.198;2024-03-08T00:58:14;8.30;;;5.38;;
84834;SDS011;75078;42.636;23.198;2024-03-08T01:00:39;8.55;;;5.03;;
84834;SDS011;75078;42.636;23.198;2024-03-08T01:03:05;7.22;;;5.22;;
84834;SDS011;75078;42.636;23.198;2024-03-08T01:05:31;6.78;;;4.82;;
84834;SDS011;75078;42.636;23.198;2024-03-08T01:08:17;6.20;;;5.00;;
84834;SDS011;75078;42.636;23.198;2024-03-08T01:10:43;5.18;;;4.68;;
84834;SDS011;75078;42.636;23.198;2024-03-08T01:13:08;6.38;;;5.20;;
84834;SDS011;75078;42.636;23.198;2024-03-08T01:15:34;5.85;;;4.07;;
84834;SDS011;75078;42.636;23.198;2024-03-08T01:18:00;4.75;;;3.95;;
84834;SDS011;75078;42.636;23.198;2024-03-08T01:20:26;3.47;;;3.17;;
84834;SDS011;75078;42.636;23.198;2024-03-08T01:22:52;3.15;;;2.78;;
84834;SDS011;75078;42.636;23.198;2024-03-08T01:25:17;3.10;;;2.90;;
84834;SDS011;75078;42.636;23.198;2024-03-08T01:27:42;2.67;;;2.45;;
84834;SDS011;75078;42.636;23.198;2024-03-08T01:30:08;2.67;;;2.47;;
84834;SDS011;75078;42.636;23.198;2024-03-08T01:32:34;10.65;;;4.35;;
84834;SDS011;75078;42.636;23.198;2024-03-08T01:34:59;3.80;;;3.15;;
84834;SDS011;75078;42.636;23.198;2024-03-08T01:37:25;3.88;;;3.40;;
84834;SDS011;75078;42.636;23.198;2024-03-08T01:39:50;3.50;;;3.20;;
84834;SDS011;75078;42.636;23.198;2024-03-08T01:42:15;5.88;;;3.35;;
84834;SDS011;75078;42.636;23.198;2024-03-08T01:44:42;3.00;;;2.70;;
84834;SDS011;75078;42.636;23.198;2024-03-08T01:47:09;4.72;;;3.03;;
84834;SDS011;75078;42.636;23.198;2024-03-08T01:49:36;4.78;;;2.90;;
84834;SDS011;75078;42.636;23.198;2024-03-08T01:52:02;3.05;;;2.67;;
84834;SDS011;75078;42.636;23.198;2024-03-08T01:54:28;3.00;;;2.65;;
84834;SDS011;75078;42.636;23.198;2024-03-08T01:56:55;2.80;;;2.53;;
84834;SDS011;75078;42.636;23.198;2024-03-08T02:01:49;2.40;;;2.20;;
84834;SDS011;75078;42.636;23.198;2024-03-08T02:04:16;2.08;;;1.98;;
84834;SDS011;75078;42.636;23.198;2024-03-08T02:06:41;2.17;;;1.98;;
84834;SDS011;75078;42.636;23.198;2024-03-08T02:09:07;2.80;;;2.42;;
84834;SDS011;75078;42.636;23.198;2024-03-08T02:11:33;2.25;;;2.15;;
84834;SDS011;75078;42.636;23.198;2024-03-08T02:13:59;2.90;;;2.40;;
84834;SDS011;75078;42.636;23.198;2024-03-08T02:16:24;2.38;;;2.17;;
84834;SDS011;75078;42.636;23.198;2024-03-08T02:18:50;2.97;;;2.40;;
84834;SDS011;75078;42.636;23.198;2024-03-08T02:21:17;1.40;;;1.30;;
84834;SDS011;75078;42.636;23.198;2024-03-08T02:23:46;3.63;;;3.33;;
84834;SDS011;75078;42.636;23.198;2024-03-08T02:26:11;3.63;;;3.33;;
84834;SDS011;75078;42.636;23.198;2024-03-08T02:28:37;3.53;;;3.17;;
84834;SDS011;75078;42.636;23.198;2024-03-08T02:31:03;3.38;;;2.95;;
84834;SDS011;75078;42.636;23.198;2024-03-08T02:33:33;3.50;;;2.92;;
84834;SDS011;75078;42.636;23.198;2024-03-08T02:35:58;4.10;;;3.05;;
84834;SDS011;75078;42.636;23.198;2024-03-08T02:38:24;4.13;;;3.63;;
84834;SDS011;75078;42.636;23.198;2024-03-08T02:40:50;3.08;;;2.75;;
84834;SDS011;75078;42.636;23.198;2024-03-08T02:43:16;4.82;;;2.72;;
84834;SDS011;75078;42.636;23.198;2024-03-08T02:45:42;5.35;;;3.22;;
84834;SDS011;75078;42.636;23.198;2024-03-08T02:48:09;2.92;;;2.45;;
84834;SDS011;75078;42.636;23.198;2024-03-08T02:50:35;3.55;;;3.08;;
84834;SDS011;75078;42.636;23.198;2024-03-08T02:53:01;4.65;;;3.38;;
84834;SDS011;75078;42.636;23.198;2024-03-08T02:55:27;3.13;;;2.83;;
84834;SDS011;75078;42.636;23.198;2024-03-08T02:57:52;5.50;;;3.55;;
84834;SDS011;75078;42.636;23.198;2024-03-08T03:00:19;3.60;;;3.22;;
84834;SDS011;75078;42.636;23.198;2024-03-08T03:02:46;9.10;;;3.75;;
84834;SDS011;75078;42.636;23.198;2024-03-08T03:05:11;9.00;;;3.28;;
84834;SDS011;75078;42.636;23.198;2024-03-08T03:07:37;4.85;;;3.55;;
84834;SDS011;75078;42.636;23.198;2024-03-08T03:10:03;11.15;;;3.45;;
84834;SDS011;75078;42.636;23.198;2024-03-08T03:12:30;3.63;;;3.08;;
84834;SDS011;75078;42.636;23.198;2024-03-08T03:14:56;7.90;;;4.47;;
84834;SDS011;75078;42.636;23.198;2024-03-08T03:17:22;4.03;;;2.90;;
84834;SDS011;75078;42.636;23.198;2024-03-08T03:19:49;4.07;;;3.47;;
84834;SDS011;75078;42.636;23.198;2024-03-08T03:22:16;3.50;;;2.67;;
84834;SDS011;75078;42.636;23.198;2024-03-08T03:24:42;2.20;;;2.10;;
84834;SDS011;75078;42.636;23.198;2024-03-08T03:27:07;2.35;;;2.10;;
84834;SDS011;75078;42.636;23.198;2024-03-08T03:29:36;2.45;;;2.22;;
84834;SDS011;75078;42.636;23.198;2024-03-08T03:32:02;1.35;;;1.25;;
84834;SDS011;75078;42.636;23.198;2024-03-08T03:34:29;1.30;;;1.20;;
84834;SDS011;75078;42.636;23.198;2024-03-08T03:36:54;1.23;;;1.13;;
84834;SDS011;75078;42.636;23.198;2024-03-08T03:39:21;1.25;;;1.20;;
84834;SDS011;75078;42.636;23.198;2024-03-08T03:41:47;1.52;;;1.00;;
84834;SDS011;75078;42.636;23.198;2024-03-08T03:44:16;1.08;;;0.88;;
84834;SDS011;75078;42.636;23.198;2024-03-08T03:46:42;0.90;;;0.90;;
84834;SDS011;75078;42.636;23.198;2024-03-08T03:49:11;1.42;;;1.27;;
84834;SDS011;75078;42.636;23.198;2024-03-08T03:51:37;1.50;;;0.98;;
84834;SDS011;75078;42.636;23.198;2024-03-08T03:54:02;1.55;;;1.10;;
84834;SDS011;75078;42.636;23.198;2024-03-08T03:56:28;1.45;;;1.33;;
84834;SDS011;75078;42.636;23.198;2024-03-08T03:58:55;1.50;;;1.40;;
84834;SDS011;75078;42.636;23.198;2024-03-08T04:01:21;2.55;;;1.40;;
84834;SDS011;75078;42.636;23.198;2024-03-08T04:03:46;1.35;;;1.25;;
84834;SDS011;75078;42.636;23.198;2024-03-08T04:06:12;2.10;;;1.80;;
84834;SDS011;75078;42.636;23.198;2024-03-08T04:08:37;1.60;;;1.50;;
84834;SDS011;75078;42.636;23.198;2024-03-08T04:11:03;1.73;;;1.42;;
84834;SDS011;75078;42.636;23.198;2024-03-08T04:13:28;1.67;;;1.58;;
84834;SDS011;75078;42.636;23.198;2024-03-08T04:15:54;1.48;;;1.38;;
84834;SDS011;75078;42.636;23.198;2024-03-08T04:18:19;1.50;;;1.40;;
84834;SDS011;75078;42.636;23.198;2024-03-08T04:20:45;1.20;;;1.20;;
84834;SDS011;75078;42.636;23.198;2024-03-08T04:23:10;1.65;;;1.30;;
84834;SDS011;75078;42.636;23.198;2024-03-08T04:25:36;1.50;;;1.40;;
84834;SDS011;75078;42.636;23.198;2024-03-08T04:28:01;1.60;;;1.50;;
84834;SDS011;75078;42.636;23.198;2024-03-08T04:30:26;1.00;;;1.00;;
84834;SDS011;75078;42.636;23.198;2024-03-08T04:32:53;1.40;;;1.17;;
84834;SDS011;75078;42.636;23.198;2024-03-08T04:35:19;1.55;;;1.38;;
84834;SDS011;75078;42.636;23.198;2024-03-08T04:37:45;1.52;;;1.20;;
84834;SDS011;75078;42.636;23.198;2024-03-08T04:40:10;1.40;;;1.30;;
84834;SDS011;75078;42.636;23.198;2024-03-08T04:42:36;2.00;;;1.80;;
84834;SDS011;75078;42.636;23.198;2024-03-08T04:45:04;1.75;;;1.30;;
84834;SDS011;75078;42.636;23.198;2024-03-08T04:47:30;3.47;;;2.58;;
84834;SDS011;75078;42.636;23.198;2024-03-08T04:49:55;5.53;;;3.08;;
84834;SDS011;75078;42.636;23.198;2024-03-08T04:52:22;2.80;;;2.60;;
84834;SDS011;75078;42.636;23.198;2024-03-08T04:54:47;4.15;;;2.90;;
84834;SDS011;75078;42.636;23.198;2024-03-08T04:57:12;2.78;;;2.58;;
84834;SDS011;75078;42.636;23.198;2024-03-08T04:59:38;2.70;;;2.50;;
84834;SDS011;75078;42.636;23.198;2024-03-08T05:02:03;2.92;;;2.63;;
84834;SDS011;75078;42.636;23.198;2024-03-08T05:04:29;3.08;;;2.88;;
84834;SDS011;75078;42.636;23.198;2024-03-08T05:06:54;1.80;;;1.67;;
84834;SDS011;75078;42.636;23.198;2024-03-08T05:09:20;1.90;;;1.80;;
84834;SDS011;75078;42.636;23.198;2024-03-08T05:11:46;1.60;;;1.50;;
84834;SDS011;75078;42.636;23.198;2024-03-08T05:14:12;2.13;;;1.95;;
84834;SDS011;75078;42.636;23.198;2024-03-08T05:16:41;2.40;;;2.25;;
84834;SDS011;75078;42.636;23.198;2024-03-08T05:19:07;2.17;;;1.98;;
84834;SDS011;75078;42.636;23.198;2024-03-08T05:21:33;1.88;;;1.77;;
84834;SDS011;75078;42.636;23.198;2024-03-08T05:23:58;2.05;;;1.85;;
84834;SDS011;75078;42.636;23.198;2024-03-08T05:26:23;2.47;;;2.28;;
84834;SDS011;75078;42.636;23.198;2024-03-08T05:28:49;4.18;;;3.83;;
84834;SDS011;75078;42.636;23.198;2024-03-08T05:31:19;2.20;;;2.05;;
84834;SDS011;75078;42.636;23.198;2024-03-08T05:36:15;7.82;;;2.60;;
84834;SDS011;75078;42.636;23.198;2024-03-08T05:38:44;5.88;;;4.90;;
84834;SDS011;75078;42.636;23.198;2024-03-08T05:41:10;4.28;;;3.55;;
84834;SDS011;75078;42.636;23.198;2024-03-08T05:43:37;3.88;;;3.50;;
84834;SDS011;75078;42.636;23.198;2024-03-08T05:46:02;3.30;;;3.00;;
84834;SDS011;75078;42.636;23.198;2024-03-08T05:48:29;3.58;;;2.97;;
84834;SDS011;75078;42.636;23.198;2024-03-08T05:50:57;4.35;;;3.92;;
84834;SDS011;75078;42.636;23.198;2024-03-08T05:53:22;4.75;;;3.55;;
84834;SDS011;75078;42.636;23.198;2024-03-08T05:55:47;3.75;;;3.45;;
84834;SDS011;75078;42.636;23.198;2024-03-08T05:58:14;4.22;;;3.25;;
84834;SDS011;75078;42.636;23.198;2024-03-08T06:00:39;6.70;;;4.38;;
84834;SDS011;75078;42.636;23.198;2024-03-08T06:03:05;4.72;;;4.32;;
84834;SDS011;75078;42.636;23.198;2024-03-08T06:05:30;6.18;;;5.03;;
84834;SDS011;75078;42.636;23.198;2024-03-08T06:07:56;5.75;;;4.65;;
84834;SDS011;75078;42.636;23.198;2024-03-08T06:10:21;6.35;;;5.25;;
84834;SDS011;75078;42.636;23.198;2024-03-08T06:12:46;6.07;;;4.25;;
84834;SDS011;75078;42.636;23.198;2024-03-08T06:15:12;5.70;;;4.10;;
84834;SDS011;75078;42.636;23.198;2024-03-08T06:17:41;5.00;;;3.83;;
84834;SDS011;75078;42.636;23.198;2024-03-08T06:20:06;5.00;;;4.50;;
84834;SDS011;75078;42.636;23.198;2024-03-08T06:22:38;4.65;;;3.83;;
84834;SDS011;75078;42.636;23.198;2024-03-08T06:25:07;4.15;;;3.75;;
84834;SDS011;75078;42.636;23.198;2024-03-08T06:27:35;6.63;;;3.42;;
84834;SDS011;75078;42.636;23.198;2024-03-08T06:30:00;7.55;;;4.25;;
84834;SDS011;75078;42.636;23.198;2024-03-08T06:32:26;4.80;;;4.07;;
84834;SDS011;75078;42.636;23.198;2024-03-08T06:34:51;3.65;;;2.90;;
84834;SDS011;75078;42.636;23.198;2024-03-08T06:37:17;4.18;;;3.78;;
84834;SDS011;75078;42.636;23.198;2024-03-08T06:39:46;7.97;;;4.30;;
84834;SDS011;75078;42.636;23.198;2024-03-08T06:42:16;3.83;;;3.40;;
84834;SDS011;75078;42.636;23.198;2024-03-08T06:44:41;6.40;;;3.92;;
84834;SDS011;75078;42.636;23.198;2024-03-08T06:47:13;4.78;;;3.30;;
84834;SDS011;75078;42.636;23.198;2024-03-08T06:49:40;4.78;;;4.28;;
84834;SDS011;75078;42.636;23.198;2024-03-08T06:52:06;5.68;;;3.78;;
84834;SDS011;75078;42.636;23.198;2024-03-08T06:54:33;4.85;;;4.32;;
84834;SDS011;75078;42.636;23.198;2024-03-08T06:57:01;6.13;;;3.97;;
84834;SDS011;75078;42.636;23.198;2024-03-08T06:59:28;7.30;;;4.15;;
84834;SDS011;75078;42.636;23.198;2024-03-08T07:01:53;4.75;;;3.38;;
84834;SDS011;75078;42.636;23.198;2024-03-08T07:04:19;5.18;;;4.30;;
84834;SDS011;75078;42.636;23.198;2024-03-08T07:06:46;6.03;;;4.82;;
84834;SDS011;75078;42.636;23.198;2024-03-08T07:09:15;5.05;;;4.03;;
84834;SDS011;75078;42.636;23.198;2024-03-08T07:11:41;7.53;;;5.30;;
84834;SDS011;75078;42.636;23.198;2024-03-08T07:14:07;8.05;;;5.35;;
84834;SDS011;75078;42.636;23.198;2024-03-08T07:16:33;6.50;;;4.15;;
84834;SDS011;75078;42.636;23.198;2024-03-08T07:19:00;6.75;;;5.03;;
84834;SDS011;75078;42.636;23.198;2024-03-08T07:21:30;6.10;;;4.85;;
84834;SDS011;75078;42.636;23.198;2024-03-08T07:23:55;7.05;;;5.38;;
84834;SDS011;75078;42.636;23.198;2024-03-08T07:26:23;6.75;;;4.93;;
84834;SDS011;75078;42.636;23.198;2024-03-08T07:28:49;9.48;;;4.53;;
84834;SDS011;75078;42.636;23.198;2024-03-08T07:31:14;7.82;;;5.43;;
84834;SDS011;75078;42.636;23.198;2024-03-08T07:33:39;5.20;;;4.43;;
84834;SDS011;75078;42.636;23.198;2024-03-08T07:36:05;7.07;;;4.57;;
84834;SDS011;75078;42.636;23.198;2024-03-08T07:38:30;7.07;;;5.15;;
84834;SDS011;75078;42.636;23.198;2024-03-08T07:40:55;6.78;;;4.85;;
84834;SDS011;75078;42.636;23.198;2024-03-08T07:43:22;7.18;;;5.95;;
84834;SDS011;75078;42.636;23.198;2024-03-08T07:45:47;6.68;;;5.60;;
84834;SDS011;75078;42.636;23.198;2024-03-08T07:48:13;9.25;;;5.70;;
84834;SDS011;75078;42.636;23.198;2024-03-08T07:50:39;8.60;;;5.38;;
84834;SDS011;75078;42.636;23.198;2024-03-08T07:53:05;8.68;;;5.88;;
84834;SDS011;75078;42.636;23.198;2024-03-08T07:55:32;7.95;;;5.05;;
84834;SDS011;75078;42.636;23.198;2024-03-08T07:57:58;5.70;;;4.82;;
84834;SDS011;75078;42.636;23.198;2024-03-08T08:00:23;6.95;;;4.93;;
84834;SDS011;75078;42.636;23.198;2024-03-08T08:02:49;7.65;;;4.63;;
84834;SDS011;75078;42.636;23.198;2024-03-08T08:05:14;10.43;;;6.22;;
84834;SDS011;75078;42.636;23.198;2024-03-08T08:07:43;8.60;;;6.15;;
84834;SDS011;75078;42.636;23.198;2024-03-08T08:10:09;7.85;;;5.10;;
84834;SDS011;75078;42.636;23.198;2024-03-08T08:12:41;10.60;;;5.90;;
84834;SDS011;75078;42.636;23.198;2024-03-08T08:15:07;7.78;;;5.43;;
84834;SDS011;75078;42.636;23.198;2024-03-08T08:17:32;8.40;;;4.93;;
84834;SDS011;75078;42.636;23.198;2024-03-08T08:19:59;5.78;;;4.25;;
84834;SDS011;75078;42.636;23.198;2024-03-08T08:22:25;5.55;;;4.20;;
84834;SDS011;75078;42.636;23.198;2024-03-08T08:24:50;5.78;;;4.13;;
84834;SDS011;75078;42.636;23.198;2024-03-08T08:27:17;7.63;;;5.20;;
84834;SDS011;75078;42.636;23.198;2024-03-08T08:29:42;10.38;;;5.75;;
84834;SDS011;75078;42.636;23.198;2024-03-08T08:32:08;10.30;;;6.40;;
84834;SDS011;75078;42.636;23.198;2024-03-08T08:34:35;9.48;;;5.95;;
84834;SDS011;75078;42.636;23.198;2024-03-08T08:37:01;10.90;;;7.00;;
84834;SDS011;75078;42.636;23.198;2024-03-08T08:39:26;13.38;;;8.07;;
84834;SDS011;75078;42.636;23.198;2024-03-08T08:41:52;11.75;;;7.32;;
84834;SDS011;75078;42.636;23.198;2024-03-08T08:44:18;7.70;;;6.00;;
84834;SDS011;75078;42.636;23.198;2024-03-08T08:46:43;7.93;;;5.30;;
84834;SDS011;75078;42.636;23.198;2024-03-08T08:49:08;8.18;;;6.00;;
84834;SDS011;75078;42.636;23.198;2024-03-08T08:51:39;9.10;;;5.55;;
84834;SDS011;75078;42.636;23.198;2024-03-08T08:54:05;7.90;;;6.82;;
84834;SDS011;75078;42.636;23.198;2024-03-08T08:56:31;9.48;;;6.25;;
84834;SDS011;75078;42.636;23.198;2024-03-08T08:58:57;12.52;;;7.60;;
84834;SDS011;75078;42.636;23.198;2024-03-08T09:01:22;10.52;;;7.05;;
84834;SDS011;75078;42.636;23.198;2024-03-08T09:03:48;9.82;;;6.80;;
84834;SDS011;75078;42.636;23.198;2024-03-08T09:06:15;10.00;;;7.68;;
84834;SDS011;75078;42.636;23.198;2024-03-08T09:08:41;7.20;;;6.45;;
84834;SDS011;75078;42.636;23.198;2024-03-08T09:11:07;10.45;;;6.10;;
84834;SDS011;75078;42.636;23.198;2024-03-08T09:13:32;6.90;;;5.20;;
84834;SDS011;75078;42.636;23.198;2024-03-08T09:15:58;9.70;;;5.32;;
84834;SDS011;75078;42.636;23.198;2024-03-08T09:18:24;5.03;;;4.53;;
84834;SDS011;75078;42.636;23.198;2024-03-08T09:20:50;6.68;;;5.45;;
84834;SDS011;75078;42.636;23.198;2024-03-08T09:23:16;17.20;;;9.18;;
84834;SDS011;75078;42.636;23.198;2024-03-08T09:25:44;7.03;;;6.13;;
84834;SDS011;75078;42.636;23.198;2024-03-08T09:28:10;6.97;;;5.68;;
84834;SDS011;75078;42.636;23.198;2024-03-08T09:30:37;6.55;;;5.25;;
84834;SDS011;75078;42.636;23.198;2024-03-08T09:33:03;8.80;;;5.55;;
84834;SDS011;75078;42.636;23.198;2024-03-08T09:35:29;6.10;;;5.40;;
84834;SDS011;75078;42.636;23.198;2024-03-08T09:37:55;6.47;;;5.32;;
84834;SDS011;75078;42.636;23.198;2024-03-08T09:40:20;7.13;;;5.60;;
84834;SDS011;75078;42.636;23.198;2024-03-08T09:42:48;7.40;;;4.93;;
84834;SDS011;75078;42.636;23.198;2024-03-08T09:45:14;4.68;;;4.25;;
84834;SDS011;75078;42.636;23.198;2024-03-08T09:47:42;4.15;;;3.78;;
84834;SDS011;75078;42.636;23.198;2024-03-08T09:50:09;4.38;;;4.03;;
84834;SDS011;75078;42.636;23.198;2024-03-08T09:52:41;5.30;;;4.20;;
84834;SDS011;75078;42.636;23.198;2024-03-08T09:55:08;5.20;;;4.68;;
84834;SDS011;75078;42.636;23.198;2024-03-08T09:57:36;4.15;;;3.75;;
84834;SDS011;75078;42.636;23.198;2024-03-08T10:00:03;5.60;;;4.03;;
84834;SDS011;75078;42.636;23.198;2024-03-08T10:02:45;7.13;;;4.88;;
84834;SDS011;75078;42.636;23.198;2024-03-08T10:05:11;3.67;;;3.17;;
84834;SDS011;75078;42.636;23.198;2024-03-08T10:07:37;2.92;;;2.70;;
84834;SDS011;75078;42.636;23.198;2024-03-08T10:10:02;4.07;;;3.67;;
84834;SDS011;75078;42.636;23.198;2024-03-08T10:12:28;3.67;;;3.38;;
84834;SDS011;75078;42.636;23.198;2024-03-08T10:14:58;4.20;;;3.58;;
84834;SDS011;75078;42.636;23.198;2024-03-08T10:17:23;4.00;;;3.30;;
84834;SDS011;75078;42.636;23.198;2024-03-08T10:19:49;3.83;;;3.25;;
84834;SDS011;75078;42.636;23.198;2024-03-08T10:22:16;3.40;;;3.10;;
84834;SDS011;75078;42.636;23.198;2024-03-08T10:24:41;2.85;;;2.65;;
84834;SDS011;75078;42.636;23.198;2024-03-08T10:27:07;3.22;;;3.03;;
84834;SDS011;75078;42.636;23.198;2024-03-08T10:29:33;3.65;;;3.25;;
84834;SDS011;75078;42.636;23.198;2024-03-08T10:31:58;3.13;;;2.92;;
84834;SDS011;75078;42.636;23.198;2024-03-08T10:34:24;5.80;;;3.13;;
84834;SDS011;75078;42.636;23.198;2024-03-08T10:36:50;3.53;;;3.22;;
84834;SDS011;75078;42.636;23.198;2024-03-08T10:39:23;3.65;;;3.25;;
84834;SDS011;75078;42.636;23.198;2024-03-08T10:41:56;3.15;;;2.88;;
84834;SDS011;75078;42.636;23.198;2024-03-08T10:49:57;2.67;;;2.47;;
84834;SDS011;75078;42.636;23.198;2024-03-08T10:52:33;3.00;;;2.45;;
84834;SDS011;75078;42.636;23.198;2024-03-08T10:54:59;2.47;;;2.33;;
84834;SDS011;75078;42.636;23.198;2024-03-08T10:57:27;2.80;;;2.50;;
84834;SDS011;75078;42.636;23.198;2024-03-08T10:59:52;2.67;;;2.47;;
84834;SDS011;75078;42.636;23.198;2024-03-08T11:02:18;3.00;;;2.58;;
84834;SDS011;75078;42.636;23.198;2024-03-08T11:04:48;2.90;;;2.65;;
84834;SDS011;75078;42.636;23.198;2024-03-08T11:07:14;3.00;;;2.80;;
84834;SDS011;75078;42.636;23.198;2024-03-08T11:09:44;2.83;;;2.63;;
84834;SDS011;75078;42.636;23.198;2024-03-08T11:12:24;3.35;;;2.78;;
84834;SDS011;75078;42.636;23.198;2024-03-08T11:14:56;2.42;;;2.22;;
84834;SDS011;75078;42.636;23.198;2024-03-08T11:17:26;2.97;;;2.67;;
84834;SDS011;75078;42.636;23.198;2024-03-08T11:20:12;2.40;;;2.30;;
84834;SDS011;75078;42.636;23.198;2024-03-08T11:22:48;2.70;;;2.50;;
84834;SDS011;75078;42.636;23.198;2024-03-08T11:28:20;3.90;;;2.28;;
84834;SDS011;75078;42.636;23.198;2024-03-08T11:33:23;2.92;;;2.10;;
84834;SDS011;75078;42.636;23.198;2024-03-08T11:35:51;2.88;;;2.67;;
84834;SDS011;75078;42.636;23.198;2024-03-08T11:38:17;2.63;;;2.42;;
84834;SDS011;75078;42.636;23.198;2024-03-08T11:40:45;1.30;;;1.20;;
84834;SDS011;75078;42.636;23.198;2024-03-08T11:43:15;2.90;;;1.90;;
84834;SDS011;75078;42.636;23.198;2024-03-08T11:45:41;2.13;;;1.92;;
84834;SDS011;75078;42.636;23.198;2024-03-08T11:48:06;1.90;;;1.80;;
84834;SDS011;75078;42.636;23.198;2024-03-08T11:50:32;2.35;;;2.25;;
84834;SDS011;75078;42.636;23.198;2024-03-08T11:53:01;2.00;;;1.90;;
84834;SDS011;75078;42.636;23.198;2024-03-08T11:55:33;3.38;;;2.03;;
84834;SDS011;75078;42.636;23.198;2024-03-08T11:58:03;2.28;;;1.90;;
84834;SDS011;75078;42.636;23.198;2024-03-08T12:00:30;1.88;;;1.73;;
84834;SDS011;75078;42.636;23.198;2024-03-08T12:03:03;4.00;;;3.38;;
84834;SDS011;75078;42.636;23.198;2024-03-08T12:05:30;2.67;;;2.47;;
84834;SDS011;75078;42.636;23.198;2024-03-08T12:07:58;2.10;;;2.00;;
84834;SDS011;75078;42.636;23.198;2024-03-08T12:10:24;2.05;;;1.83;;
84834;SDS011;75078;42.636;23.198;2024-03-08T12:12:51;2.10;;;1.92;;
84834;SDS011;75078;42.636;23.198;2024-03-08T12:15:18;2.20;;;2.00;;
84834;SDS011;75078;42.636;23.198;2024-03-08T12:17:46;3.20;;;2.22;;
84834;SDS011;75078;42.636;23.198;2024-03-08T12:20:17;1.85;;;1.75;;
84834;SDS011;75078;42.636;23.198;2024-03-08T12:22:49;1.80;;;1.70;;
84834;SDS011;75078;42.636;23.198;2024-03-08T12:25:17;2.53;;;2.33;;
84834;SDS011;75078;42.636;23.198;2024-03-08T12:27:43;3.03;;;2.00;;
84834;SDS011;75078;42.636;23.198;2024-03-08T12:32:55;2.33;;;2.15;;
84834;SDS011;75078;42.636;23.198;2024-03-08T12:35:22;2.50;;;2.08;;
84834;SDS011;75078;42.636;23.198;2024-03-08T12:37:52;1.77;;;1.67;;
84834;SDS011;75078;42.636;23.198;2024-03-08T12:40:21;2.97;;;1.88;;
84834;SDS011;75078;42.636;23.198;2024-03-08T12:43:00;3.15;;;1.92;;
84834;SDS011;75078;42.636;23.198;2024-03-08T12:45:26;2.63;;;2.42;;
84834;SDS011;75078;42.636;23.198;2024-03-08T12:47:55;1.90;;;1.80;;
84834;SDS011;75078;42.636;23.198;2024-03-08T12:50:21;2.00;;;1.90;;
84834;SDS011;75078;42.636;23.198;2024-03-08T12:52:47;1.83;;;1.73;;
84834;SDS011;75078;42.636;23.198;2024-03-08T12:55:17;2.45;;;2.25;;
84834;SDS011;75078;42.636;23.198;2024-03-08T12:57:43;2.10;;;2.00;;
84834;SDS011;75078;42.636;23.198;2024-03-08T13:00:09;3.67;;;2.30;;
84834;SDS011;75078;42.636;23.198;2024-03-08T13:02:38;3.03;;;2.10;;
84834;SDS011;75078;42.636;23.198;2024-03-08T13:05:04;1.73;;;1.63;;
84834;SDS011;75078;42.636;23.198;2024-03-08T13:07:30;2.65;;;2.10;;
84834;SDS011;75078;42.636;23.198;2024-03-08T13:09:56;1.77;;;1.67;;
84834;SDS011;75078;42.636;23.198;2024-03-08T13:12:24;1.98;;;1.88;;
84834;SDS011;75078;42.636;23.198;2024-03-08T13:14:50;1.95;;;1.85;;
84834;SDS011;75078;42.636;23.198;2024-03-08T13:17:16;1.95;;;1.80;;
84834;SDS011;75078;42.636;23.198;2024-03-08T13:19:43;2.42;;;2.33;;
84834;SDS011;75078;42.636;23.198;2024-03-08T13:24:38;22.30;;;10.05;;
84834;SDS011;75078;42.636;23.198;2024-03-08T13:27:05;2.03;;;1.85;;
84834;SDS011;75078;42.636;23.198;2024-03-08T13:29:41;1.70;;;1.60;;
84834;SDS011;75078;42.636;23.198;2024-03-08T13:32:08;1.73;;;1.63;;
84834;SDS011;75078;42.636;23.198;2024-03-08T13:34:36;1.73;;;1.63;;
84834;SDS011;75078;42.636;23.198;2024-03-08T13:37:01;1.75;;;1.65;;
84834;SDS011;75078;42.636;23.198;2024-03-08T13:39:28;2.20;;;2.10;;
84834;SDS011;75078;42.636;23.198;2024-03-08T13:41:56;1.80;;;1.70;;
84834;SDS011;75078;42.636;23.198;2024-03-08T13:44:21;2.22;;;2.10;;
84834;SDS011;75078;42.636;23.198;2024-03-08T13:46:47;1.70;;;1.60;;
84834;SDS011;75078;42.636;23.198;2024-03-08T13:49:12;1.63;;;1.50;;
84834;SDS011;75078;42.636;23.198;2024-03-08T13:51:38;2.22;;;2.05;;
84834;SDS011;75078;42.636;23.198;2024-03-08T13:54:03;1.63;;;1.52;;
84834;SDS011;75078;42.636;23.198;2024-03-08T13:56:31;2.00;;;1.80;;
84834;SDS011;75078;42.636;23.198;2024-03-08T13:58:57;2.05;;;1.52;;
84834;SDS011;75078;42.636;23.198;2024-03-08T14:01:22;2.13;;;1.98;;
84834;SDS011;75078;42.636;23.198;2024-03-08T14:03:48;2.08;;;1.92;;
84834;SDS011;75078;42.636;23.198;2024-03-08T14:06:13;28.77;;;11.43;;
84834;SDS011;75078;42.636;23.198;2024-03-08T14:08:39;2.60;;;2.40;;
84834;SDS011;75078;42.636;23.198;2024-03-08T14:11:04;2.05;;;1.95;;
84834;SDS011;75078;42.636;23.198;2024-03-08T14:13:43;1.73;;;1.52;;
84834;SDS011;75078;42.636;23.198;2024-03-08T14:16:12;2.88;;;1.95;;
84834;SDS011;75078;42.636;23.198;2024-03-08T14:18:38;2.47;;;2.28;;
84834;SDS011;75078;42.636;23.198;2024-03-08T14:21:04;1.70;;;1.60;;
84834;SDS011;75078;42.636;23.198;2024-03-08T14:23:30;2.55;;;1.92;;
84834;SDS011;75078;42.636;23.198;2024-03-08T14:25:55;1.75;;;1.65;;
84834;SDS011;75078;42.636;23.198;2024-03-08T14:28:21;2.15;;;1.95;;
84834;SDS011;75078;42.636;23.198;2024-03-08T14:30:47;2.22;;;2.03;;
84834;SDS011;75078;42.636;23.198;2024-03-08T14:33:13;3.08;;;1.98;;
84834;SDS011;75078;42.636;23.198;2024-03-08T14:35:39;1.92;;;1.83;;
84834;SDS011;75078;42.636;23.198;2024-03-08T14:38:05;2.40;;;2.08;;
84834;SDS011;75078;42.636;23.198;2024-03-08T14:40:35;2.38;;;2.17;;
84834;SDS011;75078;42.636;23.198;2024-03-08T14:43:04;1.60;;;1.50;;
84834;SDS011;75078;42.636;23.198;2024-03-08T14:45:29;1.92;;;1.83;;
84834;SDS011;75078;42.636;23.198;2024-03-08T14:47:55;2.35;;;2.15;;
84834;SDS011;75078;42.636;23.198;2024-03-08T14:50:22;1.67;;;1.42;;
84834;SDS011;75078;42.636;23.198;2024-03-08T14:52:49;2.33;;;1.67;;